createdAt,value
2022-07-31T00:02:11.577Z,100838.38
2022-07-31T00:04:41.244Z,100836.22
2022-07-31T00:07:13.468Z,100835.66
2022-07-31T00:09:52.466Z,100840.75
2022-07-31T00:12:24.927Z,100843.41
2022-07-31T00:14:54.615Z,100846.25
2022-07-31T00:17:24.332Z,100834.78
2022-07-31T00:19:54.012Z,100832.25
2022-07-31T00:22:26.291Z,100837.44
2022-07-31T00:24:55.967Z,100834.28
2022-07-31T00:27:25.728Z,100831.00
2022-07-31T00:29:55.516Z,100825.91
2022-07-31T00:32:25.206Z,100822.88
2022-07-31T00:34:55.003Z,100825.56
2022-07-31T00:37:27.641Z,100821.56
2022-07-31T00:39:57.387Z,100812.19
2022-07-31T00:42:29.121Z,100814.88
2022-07-31T00:44:58.730Z,100820.16
2022-07-31T00:47:29.901Z,100812.38
2022-07-31T00:49:59.774Z,100817.59
2022-07-31T00:52:32.080Z,100816.03
2022-07-31T00:55:01.721Z,100810.09
2022-07-31T00:57:31.374Z,100808.63
2022-07-31T01:00:01.096Z,100806.09
2022-07-31T01:02:30.719Z,100803.53
2022-07-31T01:05:00.440Z,100803.91
2022-07-31T01:07:32.967Z,100796.97
2022-07-31T01:10:05.114Z,100800.78
2022-07-31T01:12:39.670Z,100797.50
2022-07-31T01:15:11.098Z,100802.41
2022-07-31T01:17:41.710Z,100809.69
2022-07-31T01:20:14.037Z,100797.53
2022-07-31T01:22:59.227Z,100804.13
2022-07-31T01:25:41.585Z,100798.03
2022-07-31T01:28:30.268Z,100802.69
2022-07-31T01:31:25.392Z,100798.69
2022-07-31T01:34:01.168Z,100796.63
2022-07-31T01:36:35.201Z,100795.91
2022-07-31T01:39:06.620Z,100793.47
2022-07-31T01:41:46.264Z,100795.53
2022-07-31T01:44:18.503Z,100789.81
2022-07-31T01:46:51.555Z,100784.00
2022-07-31T01:49:21.771Z,100794.72
2022-07-31T01:51:52.727Z,100783.25
2022-07-31T01:54:25.156Z,100783.38
2022-07-31T01:56:55.457Z,100788.16
2022-07-31T01:59:25.829Z,100787.53
2022-07-31T02:02:16.756Z,100790.47
2022-07-31T02:04:47.149Z,100787.78
2022-07-31T02:07:17.851Z,100786.09
2022-07-31T02:09:57.083Z,100778.06
2022-07-31T02:12:34.064Z,100774.53
2022-07-31T02:15:06.618Z,100779.03
2022-07-31T02:17:40.715Z,100781.09
2022-07-31T02:20:26.265Z,100776.72
2022-07-31T02:22:58.384Z,100775.16
2022-07-31T02:25:28.840Z,100772.09
2022-07-31T02:28:00.326Z,100772.94
2022-07-31T02:30:38.297Z,100769.69
2022-07-31T02:33:15.769Z,100768.81
2022-07-31T02:35:48.004Z,100760.19
2022-07-31T02:38:22.830Z,100764.09
2022-07-31T02:40:55.839Z,100759.34
2022-07-31T02:43:26.925Z,100758.59
2022-07-31T02:45:59.461Z,100751.31
2022-07-31T02:48:32.198Z,100749.59
2022-07-31T02:51:06.246Z,100746.19
2022-07-31T02:53:37.875Z,100744.50
2022-07-31T02:56:11.043Z,100743.78
2022-07-31T02:58:44.496Z,100742.94
2022-07-31T03:01:29.048Z,100740.97
2022-07-31T03:04:02.227Z,100743.91
2022-07-31T03:06:32.605Z,100745.09
2022-07-31T03:09:02.308Z,100733.06
2022-07-31T03:11:34.368Z,100742.31
2022-07-31T03:14:04.651Z,100739.50
2022-07-31T03:16:34.996Z,100739.88
2022-07-31T03:19:08.676Z,100732.56
2022-07-31T03:21:38.832Z,100740.47
2022-07-31T03:24:11.943Z,100735.38
2022-07-31T03:26:42.559Z,100739.88
2022-07-31T03:29:39.093Z,100733.81
2022-07-31T03:32:03.583Z,100741.00
2022-07-31T03:34:36.110Z,100734.78
2022-07-31T03:37:06.722Z,100740.13
2022-07-31T03:39:36.398Z,100737.47
2022-07-31T03:42:12.923Z,100742.19
2022-07-31T03:44:49.554Z,100747.91
2022-07-31T03:47:20.550Z,100736.34
2022-07-31T03:49:52.932Z,100737.81
2022-07-31T03:52:23.357Z,100728.31
2022-07-31T03:54:53.140Z,100732.81
2022-07-31T03:57:27.017Z,100734.13
2022-07-31T04:00:00.002Z,100724.00
2022-07-31T04:02:31.902Z,100726.41
2022-07-31T04:05:15.186Z,100729.88
2022-07-31T04:07:44.895Z,100731.84
2022-07-31T04:10:15.091Z,100737.31
2022-07-31T04:12:44.888Z,100744.72
2022-07-31T04:15:14.764Z,100741.50
2022-07-31T04:17:44.587Z,100749.03
2022-07-31T04:20:17.288Z,100751.19
2022-07-31T04:22:47.153Z,100742.88
2022-07-31T04:25:29.701Z,100740.41
2022-07-31T04:28:22.513Z,100742.84
2022-07-31T04:30:52.185Z,100737.47
2022-07-31T04:33:22.137Z,100734.38
2022-07-31T04:35:54.784Z,100732.13
2022-07-31T04:38:24.564Z,100735.25
2022-07-31T04:40:54.402Z,100738.66
2022-07-31T04:43:24.140Z,100738.25
2022-07-31T04:45:53.831Z,100750.53
2022-07-31T04:48:23.543Z,100749.25
2022-07-31T04:50:55.912Z,100745.31
2022-07-31T04:53:25.584Z,100742.06
2022-07-31T04:56:07.629Z,100747.56
2022-07-31T04:58:37.450Z,100747.41
2022-07-31T05:01:07.820Z,100745.19
2022-07-31T05:03:39.428Z,100740.28
2022-07-31T05:06:16.035Z,100745.44
2022-07-31T05:08:46.162Z,100737.41
2022-07-31T05:11:27.768Z,100743.09
2022-07-31T05:13:59.079Z,100746.63
2022-07-31T05:16:29.667Z,100744.41
2022-07-31T05:19:00.419Z,100740.75
2022-07-31T05:22:05.653Z,100754.81
2022-07-31T05:25:00.540Z,100750.88
2022-07-31T05:27:32.017Z,100747.09
2022-07-31T05:30:02.035Z,100754.28
2022-07-31T05:32:33.536Z,100744.41
2022-07-31T05:35:03.220Z,100742.69
2022-07-31T05:37:35.960Z,100748.94
2022-07-31T05:40:08.616Z,100755.38
2022-07-31T05:42:56.922Z,100753.16
2022-07-31T05:45:35.015Z,100753.75
2022-07-31T05:48:04.689Z,100754.38
2022-07-31T05:50:34.489Z,100758.91
2022-07-31T05:55:55.119Z,100760.22
2022-07-31T05:58:48.409Z,100757.06
2022-07-31T06:01:19.199Z,100758.63
2022-07-31T06:03:51.965Z,100759.78
2022-07-31T06:06:29.401Z,100753.44
2022-07-31T06:09:04.769Z,100748.78
2022-07-31T06:11:38.507Z,100757.69
2022-07-31T06:14:08.316Z,100755.19
2022-07-31T06:17:16.279Z,100758.31
2022-07-31T06:19:46.166Z,100749.16
2022-07-31T06:22:16.505Z,100746.34
2022-07-31T06:24:48.870Z,100750.88
2022-07-31T06:27:33.376Z,100751.72
2022-07-31T06:30:05.899Z,100747.91
2022-07-31T06:32:35.740Z,100747.50
2022-07-31T06:35:06.092Z,100743.84
2022-07-31T06:37:46.099Z,100745.97
2022-07-31T06:40:18.707Z,100754.34
2022-07-31T06:42:48.788Z,100745.03
2022-07-31T06:45:51.493Z,100749.00
2022-07-31T06:48:40.733Z,100747.03
2022-07-31T06:51:32.371Z,100742.94
2022-07-31T06:54:02.554Z,100747.31
2022-07-31T06:56:35.241Z,100740.84
2022-07-31T06:59:05.446Z,100746.63
2022-07-31T07:01:35.340Z,100742.75
2022-07-31T07:04:05.701Z,100750.25
2022-07-31T07:06:35.476Z,100745.22
2022-07-31T07:09:05.327Z,100749.31
2022-07-31T07:11:37.867Z,100754.84
2022-07-31T07:14:07.530Z,100744.78
2022-07-31T07:16:37.243Z,100734.19
2022-07-31T07:19:07.191Z,100736.47
2022-07-31T07:21:36.945Z,100740.41
2022-07-31T07:24:08.195Z,100740.94
2022-07-31T07:26:44.975Z,100743.75
2022-07-31T07:29:15.002Z,100738.69
2022-07-31T07:31:44.711Z,100739.66
2022-07-31T07:34:15.129Z,100741.94
2022-07-31T07:36:44.822Z,100733.88
2022-07-31T07:39:25.019Z,100736.41
2022-07-31T07:41:58.185Z,100739.69
2022-07-31T07:44:30.251Z,100736.31
2022-07-31T07:47:01.159Z,100738.56
2022-07-31T07:49:31.868Z,100732.00
2022-07-31T07:52:22.159Z,100721.69
2022-07-31T07:55:13.286Z,100716.31
2022-07-31T07:58:08.761Z,100721.25
2022-07-31T08:01:07.281Z,100717.31
2022-07-31T08:03:49.636Z,100712.66
2022-07-31T08:06:21.875Z,100718.00
2022-07-31T08:08:51.920Z,100725.47
2022-07-31T08:11:42.254Z,100721.09
2022-07-31T08:14:24.497Z,100727.47
2022-07-31T08:17:14.683Z,100715.72
2022-07-31T08:19:49.550Z,100712.75
2022-07-31T08:22:21.458Z,100711.66
2022-07-31T08:24:51.268Z,100710.22
2022-07-31T08:27:39.911Z,100709.66
2022-07-31T08:30:13.739Z,100715.44
2022-07-31T08:32:43.415Z,100709.50
2022-07-31T08:35:21.889Z,100709.50
2022-07-31T08:38:03.573Z,100714.19
2022-07-31T08:40:43.613Z,100721.69
2022-07-31T08:44:01.830Z,100716.03
2022-07-31T08:46:08.019Z,100720.00
2022-07-31T08:48:42.896Z,100722.69
2022-07-31T08:51:14.719Z,100716.78
2022-07-31T08:54:10.503Z,100727.53
2022-07-31T08:56:41.469Z,100722.56
2022-07-31T08:59:11.845Z,100717.03
2022-07-31T09:01:44.684Z,100724.53
2022-07-31T09:04:14.696Z,100719.16
2022-07-31T09:06:44.968Z,100714.34
2022-07-31T09:09:14.651Z,100709.81
2022-07-31T09:11:49.886Z,100715.50
2022-07-31T09:14:39.672Z,100706.72
2022-07-31T09:17:15.361Z,100717.28
2022-07-31T09:19:52.476Z,100703.00
2022-07-31T09:22:28.591Z,100708.63
2022-07-31T09:25:16.224Z,100698.25
2022-07-31T09:27:46.272Z,100703.84
2022-07-31T09:30:16.842Z,100708.53
2022-07-31T09:33:22.362Z,100709.53
2022-07-31T09:36:10.649Z,100711.22
2022-07-31T09:38:46.425Z,100712.78
2022-07-31T09:42:01.397Z,100714.34
2022-07-31T09:44:53.945Z,100722.03
2022-07-31T09:47:26.790Z,100718.03
2022-07-31T09:50:01.149Z,100718.88
2022-07-31T09:52:32.142Z,100711.25
2022-07-31T09:55:16.130Z,100706.56
2022-07-31T09:57:57.855Z,100710.66
2022-07-31T10:00:31.397Z,100705.13
2022-07-31T10:03:01.452Z,100713.75
2022-07-31T10:05:33.956Z,100711.91
2022-07-31T10:08:05.568Z,100701.31
2022-07-31T10:10:55.680Z,100702.25
2022-07-31T10:13:40.698Z,100695.16
2022-07-31T10:16:12.395Z,100701.53
2022-07-31T10:19:11.525Z,100695.03
2022-07-31T10:22:06.950Z,100698.97
2022-07-31T10:24:45.394Z,100691.03
2022-07-31T10:27:16.462Z,100696.53
2022-07-31T10:29:47.290Z,100688.72
2022-07-31T10:32:17.121Z,100686.88
2022-07-31T10:35:07.564Z,100683.66
2022-07-31T10:38:02.809Z,100677.94
2022-07-31T10:40:58.176Z,100678.38
2022-07-31T10:43:31.497Z,100679.38
2022-07-31T10:46:11.685Z,100679.91
2022-07-31T10:48:54.240Z,100669.44
2022-07-31T10:51:49.700Z,100664.28
2022-07-31T10:54:44.979Z,100663.06
2022-07-31T10:57:55.904Z,100659.72
2022-07-31T11:00:30.289Z,100659.03
2022-07-31T11:03:25.632Z,100661.03
2022-07-31T11:06:13.892Z,100663.97
2022-07-31T11:08:57.756Z,100665.75
2022-07-31T11:11:53.743Z,100665.00
2022-07-31T11:14:43.021Z,100655.75
2022-07-31T11:18:20.913Z,100654.31
2022-07-31T11:20:46.950Z,100660.63
2022-07-31T11:23:18.467Z,100651.41
2022-07-31T11:25:49.056Z,100655.66
2022-07-31T11:28:23.770Z,100655.34
2022-07-31T11:30:54.756Z,100655.19
2022-07-31T11:33:42.114Z,100655.34
2022-07-31T11:36:14.804Z,100661.25
2022-07-31T11:38:46.954Z,100661.09
2022-07-31T11:41:17.492Z,100653.50
2022-07-31T11:43:57.349Z,100657.56
2022-07-31T11:46:28.787Z,100655.81
2022-07-31T11:48:59.330Z,100665.91
2022-07-31T11:51:31.004Z,100660.00
2022-07-31T11:54:01.007Z,100649.50
2022-07-31T11:56:30.801Z,100655.44
2022-07-31T11:59:03.165Z,100657.13
2022-07-31T12:01:35.309Z,100660.69
2022-07-31T12:04:08.801Z,100655.66
2022-07-31T12:06:39.826Z,100643.81
2022-07-31T12:10:00.268Z,100646.81
2022-07-31T12:12:00.884Z,100640.63
2022-07-31T12:14:35.122Z,100636.09
2022-07-31T12:17:06.149Z,100632.09
2022-07-31T12:19:38.741Z,100627.75
2022-07-31T12:22:16.067Z,100630.28
2022-07-31T12:24:46.355Z,100621.94
2022-07-31T12:27:18.452Z,100627.03
2022-07-31T12:29:50.723Z,100621.50
2022-07-31T12:32:27.071Z,100624.88
2022-07-31T12:35:14.348Z,100620.50
2022-07-31T12:37:48.711Z,100621.59
2022-07-31T12:40:27.158Z,100613.88
2022-07-31T12:43:00.408Z,100614.75
2022-07-31T12:45:40.244Z,100610.03
2022-07-31T12:48:10.193Z,100607.00
2022-07-31T12:50:39.896Z,100604.88
2022-07-31T12:53:09.899Z,100606.63
2022-07-31T12:55:39.728Z,100600.22
2022-07-31T12:58:09.467Z,100596.69
2022-07-31T13:00:41.799Z,100598.63
2022-07-31T13:03:11.852Z,100586.75
2022-07-31T13:05:41.556Z,100593.00
2022-07-31T13:08:11.456Z,100598.72
2022-07-31T13:10:41.062Z,100592.31
2022-07-31T13:13:10.760Z,100588.59
2022-07-31T13:15:43.136Z,100588.78
2022-07-31T13:18:12.872Z,100583.50
2022-07-31T13:20:42.622Z,100581.50
2022-07-31T13:23:12.311Z,100578.44
2022-07-31T13:25:42.066Z,100578.81
2022-07-31T13:28:11.746Z,100575.97
2022-07-31T13:30:44.231Z,100571.91
2022-07-31T13:33:14.030Z,100576.34
2022-07-31T13:35:43.709Z,100564.34
2022-07-31T13:38:14.749Z,100555.41
2022-07-31T13:40:56.828Z,100555.88
2022-07-31T13:43:26.580Z,100552.16
2022-07-31T13:45:58.819Z,100559.78
2022-07-31T13:48:28.679Z,100557.56
2022-07-31T13:50:58.582Z,100551.31
2022-07-31T13:53:28.233Z,100554.72
2022-07-31T13:55:58.767Z,100560.28
2022-07-31T13:58:29.759Z,100553.91
2022-07-31T14:01:04.507Z,100562.31
2022-07-31T14:03:35.373Z,100559.97
2022-07-31T14:06:06.163Z,100550.50
2022-07-31T14:08:49.727Z,100556.06
2022-07-31T14:11:20.159Z,100556.59
2022-07-31T14:13:49.854Z,100552.03
2022-07-31T14:16:22.113Z,100547.78
2022-07-31T14:18:51.846Z,100541.34
2022-07-31T14:21:21.503Z,100532.41
2022-07-31T14:23:51.191Z,100538.66
2022-07-31T14:26:20.948Z,100543.38
2022-07-31T14:28:50.615Z,100534.97
2022-07-31T14:31:22.929Z,100530.22
2022-07-31T14:33:52.565Z,100528.84
2022-07-31T14:36:22.257Z,100523.13
2022-07-31T14:38:51.999Z,100523.63
2022-07-31T14:41:21.648Z,100528.56
2022-07-31T14:43:51.340Z,100528.56
2022-07-31T14:46:23.619Z,100530.25
2022-07-31T14:48:53.314Z,100528.22
2022-07-31T14:51:23.035Z,100531.09
2022-07-31T14:53:52.748Z,100520.75
2022-07-31T14:56:39.588Z,100513.16
2022-07-31T14:59:12.264Z,100512.34
2022-07-31T15:01:44.751Z,100505.88
2022-07-31T15:04:14.518Z,100503.31
2022-07-31T15:06:53.070Z,100494.81
2022-07-31T15:09:28.884Z,100491.84
2022-07-31T15:12:01.295Z,100503.00
2022-07-31T15:14:31.401Z,100486.94
2022-07-31T15:17:03.935Z,100484.38
2022-07-31T15:19:34.071Z,100477.91
2022-07-31T15:22:10.100Z,100480.28
2022-07-31T15:24:49.155Z,100481.38
2022-07-31T15:27:21.829Z,100482.06
2022-07-31T15:30:04.405Z,100478.88
2022-07-31T15:32:41.230Z,100478.91
2022-07-31T15:35:12.376Z,100470.78
2022-07-31T15:37:44.185Z,100466.91
2022-07-31T15:40:17.022Z,100491.66
2022-07-31T15:42:49.054Z,100523.78
2022-07-31T15:45:20.798Z,100538.00
2022-07-31T15:47:53.160Z,100520.28
2022-07-31T15:50:23.000Z,100517.69
2022-07-31T15:52:52.767Z,100508.72
2022-07-31T15:55:22.474Z,100502.38
2022-07-31T15:57:52.192Z,100503.38
2022-07-31T16:00:22.044Z,100501.50
2022-07-31T16:02:54.758Z,100498.78
2022-07-31T16:05:36.499Z,100489.22
2022-07-31T16:08:29.338Z,100486.31
2022-07-31T16:10:59.217Z,100483.13
2022-07-31T16:13:28.929Z,100484.81
2022-07-31T16:15:58.533Z,100482.13
2022-07-31T16:18:31.335Z,100472.38
2022-07-31T16:21:01.084Z,100469.69
2022-07-31T16:23:32.631Z,100454.63
2022-07-31T16:26:02.364Z,100466.44
2022-07-31T16:28:32.031Z,100460.53
2022-07-31T16:31:02.012Z,100460.03
2022-07-31T16:37:19.398Z,100448.06
2022-07-31T16:40:10.388Z,100444.34
2022-07-31T16:43:00.989Z,100445.03
2022-07-31T16:45:31.880Z,100440.16
2022-07-31T16:48:01.557Z,100442.84
2022-07-31T16:50:31.267Z,100443.34
2022-07-31T16:53:03.611Z,100433.03
2022-07-31T16:55:51.602Z,100436.44
2022-07-31T16:58:24.587Z,100442.16
2022-07-31T17:00:54.678Z,100430.69
2022-07-31T17:03:59.288Z,100428.00
2022-07-31T17:06:14.500Z,100433.56
2022-07-31T17:08:46.798Z,100429.84
2022-07-31T17:11:16.531Z,100430.69
2022-07-31T17:13:46.188Z,100435.06
2022-07-31T17:16:15.849Z,100431.72
2022-07-31T17:18:49.499Z,100437.59
2022-07-31T17:21:25.672Z,100453.44
2022-07-31T17:24:03.320Z,100477.38
2022-07-31T17:26:34.137Z,100526.22
2022-07-31T17:29:03.776Z,100491.56
2022-07-31T17:31:33.505Z,100497.03
2022-07-31T17:34:07.323Z,100501.69
2022-07-31T17:36:39.242Z,100494.41
2022-07-31T17:39:11.691Z,100485.25
2022-07-31T17:41:41.363Z,100482.81
2022-07-31T17:44:11.023Z,100491.69
2022-07-31T17:46:47.966Z,100498.75
2022-07-31T17:49:20.611Z,100498.19
2022-07-31T17:51:57.767Z,100493.13
2022-07-31T17:54:32.707Z,100485.00
2022-07-31T17:57:02.402Z,100480.91
2022-07-31T17:59:32.287Z,100484.59
2022-07-31T18:02:04.027Z,100499.47
2022-07-31T18:04:37.046Z,100522.94
2022-07-31T18:07:07.971Z,100524.25
2022-07-31T18:09:40.203Z,100523.44
2022-07-31T18:12:15.096Z,100523.22
2022-07-31T18:14:46.360Z,100535.34
2022-07-31T18:17:16.015Z,100536.63
2022-07-31T18:19:45.676Z,100526.88
2022-07-31T18:22:15.464Z,100533.41
2022-07-31T18:24:47.731Z,100528.72
2022-07-31T18:27:17.543Z,100534.25
2022-07-31T18:29:55.714Z,100535.69
2022-07-31T18:32:26.002Z,100535.31
2022-07-31T18:34:55.646Z,100540.59
2022-07-31T18:37:25.356Z,100545.66
2022-07-31T18:39:58.959Z,100546.19
2022-07-31T18:42:29.573Z,100539.84
2022-07-31T18:44:59.766Z,100538.97
2022-07-31T18:47:30.289Z,100538.44
2022-07-31T18:51:01.760Z,100541.97
2022-07-31T18:52:49.807Z,100543.56
2022-07-31T18:55:22.163Z,100547.78
2022-07-31T18:57:52.789Z,100555.84
2022-07-31T19:00:22.501Z,100567.63
2022-07-31T19:02:53.028Z,100559.84
2022-07-31T19:05:22.731Z,100551.19
2022-07-31T19:07:52.457Z,100554.78
2022-07-31T19:10:29.667Z,100559.44
2022-07-31T19:13:01.919Z,100550.53
2022-07-31T19:15:31.867Z,100548.69
2022-07-31T19:18:02.195Z,100558.75
2022-07-31T19:20:55.714Z,100556.63
2022-07-31T19:23:22.644Z,100562.75
2022-07-31T19:26:02.323Z,100563.03
2022-07-31T19:28:33.167Z,100555.81
2022-07-31T19:31:03.023Z,100561.81
2022-07-31T19:33:32.744Z,100575.78
2022-07-31T19:36:03.462Z,100576.94
2022-07-31T19:38:34.064Z,100563.19
2022-07-31T19:41:07.034Z,100574.22
2022-07-31T19:43:36.954Z,100574.25
2022-07-31T19:46:11.838Z,100573.84
2022-07-31T19:48:42.835Z,100575.22
2022-07-31T19:51:12.739Z,100568.16
2022-07-31T19:53:42.937Z,100582.16
2022-07-31T19:56:20.706Z,100589.28
2022-07-31T19:58:51.791Z,100587.00
2022-07-31T20:01:22.627Z,100596.22
2022-07-31T20:03:53.146Z,100590.97
2022-07-31T20:06:23.058Z,100597.47
2022-07-31T20:08:56.927Z,100599.47
2022-07-31T20:11:29.215Z,100612.50
2022-07-31T20:13:58.978Z,100607.69
2022-07-31T20:16:28.603Z,100606.00
2022-07-31T20:18:58.470Z,100603.75
2022-07-31T20:21:34.918Z,100605.84
2022-07-31T20:24:05.119Z,100611.81
2022-07-31T20:26:37.726Z,100614.78
2022-07-31T20:29:07.719Z,100621.41
2022-07-31T20:31:38.021Z,100620.84
2022-07-31T20:34:07.725Z,100608.94
2022-07-31T20:36:37.407Z,100611.81
2022-07-31T20:39:07.403Z,100613.31
2022-07-31T20:41:40.514Z,100613.94
2022-07-31T20:44:10.205Z,100605.41
2022-07-31T20:46:39.944Z,100614.63
2022-07-31T20:49:19.910Z,100620.97
2022-07-31T20:51:59.288Z,100619.28
2022-07-31T20:54:34.767Z,100616.16
2022-07-31T20:57:07.320Z,100619.84
2022-07-31T20:59:36.971Z,100620.38
2022-07-31T21:02:06.936Z,100619.69
2022-07-31T21:04:36.973Z,100618.25
2022-07-31T21:07:06.697Z,100622.78
2022-07-31T21:09:36.868Z,100620.94
2022-07-31T21:12:10.312Z,100621.22
2022-07-31T21:14:40.027Z,100620.69
2022-07-31T21:17:09.621Z,100631.81
2022-07-31T21:19:39.746Z,100635.06
2022-07-31T21:22:09.583Z,100623.22
2022-07-31T21:24:39.807Z,100624.31
2022-07-31T21:27:14.465Z,100632.94
2022-07-31T21:29:44.686Z,100636.63
2022-07-31T21:32:15.821Z,100642.41
2022-07-31T21:34:46.048Z,100636.47
2022-07-31T21:37:16.262Z,100637.72
2022-07-31T21:39:46.468Z,100643.25
2022-07-31T21:42:19.423Z,100646.91
2022-07-31T21:44:50.180Z,100639.84
2022-07-31T21:47:22.854Z,100641.78
2022-07-31T21:49:58.357Z,100634.72
2022-07-31T21:52:30.100Z,100637.00
2022-07-31T21:55:03.845Z,100636.41
2022-07-31T21:57:59.263Z,100632.88
2022-07-31T22:00:26.376Z,100638.41
2022-07-31T22:02:58.977Z,100638.53
2022-07-31T22:05:41.201Z,100639.38
2022-07-31T22:08:10.816Z,100640.22
2022-07-31T22:10:40.512Z,100645.31
2022-07-31T22:13:13.051Z,100643.63
2022-07-31T22:15:55.526Z,100644.34
2022-07-31T22:18:29.938Z,100640.53
2022-07-31T22:21:00.356Z,100640.69
2022-07-31T22:23:30.964Z,100639.00
2022-07-31T22:26:01.020Z,100644.75
2022-07-31T22:28:33.715Z,100646.59
2022-07-31T22:31:03.835Z,100642.34
2022-07-31T22:33:33.708Z,100641.50
2022-07-31T22:36:07.060Z,100643.19
2022-07-31T22:38:38.114Z,100645.28
2022-07-31T22:41:09.102Z,100641.06
2022-07-31T22:44:10.710Z,100646.56
2022-07-31T22:46:32.644Z,100646.72
2022-07-31T22:49:02.785Z,100644.13
2022-07-31T22:51:36.627Z,100646.53
2022-07-31T22:54:08.078Z,100649.47
2022-07-31T22:56:37.833Z,100647.19
2022-07-31T22:59:10.323Z,100642.75
2022-07-31T23:01:39.974Z,100653.78
2022-07-31T23:04:09.762Z,100653.63
2022-07-31T23:06:39.437Z,100651.94
2022-07-31T23:09:09.079Z,100648.03
2022-07-31T23:11:38.764Z,100659.13
2022-07-31T23:14:11.109Z,100655.47
2022-07-31T23:16:41.024Z,100653.78
2022-07-31T23:19:10.867Z,100657.59
2022-07-31T23:21:40.747Z,100656.00
2022-07-31T23:24:11.451Z,100660.66
2022-07-31T23:26:41.232Z,100652.59
2022-07-31T23:29:13.585Z,100660.22
2022-07-31T23:31:43.247Z,100665.00
2022-07-31T23:34:15.852Z,100665.00
2022-07-31T23:36:46.054Z,100655.81
2022-07-31T23:39:15.724Z,100661.31
2022-07-31T23:41:57.801Z,100660.47
2022-07-31T23:44:31.969Z,100653.28
2022-07-31T23:47:01.732Z,100661.31
2022-07-31T23:49:32.621Z,100655.63
2022-07-31T23:52:02.595Z,100650.16
2022-07-31T23:54:32.537Z,100654.53
2022-07-31T23:57:02.211Z,100648.34
2022-07-31T23:59:34.493Z,100653.69
